Pinellas Park, FL

8:22 PM EDT on May 25, 2015 (GMT -0400)
Bonnie Glynn | | Change Station
CLOSE
Current Station
Personal Weather Station
Location: Pinellas Park, FL
Elevation: 14 ft
Nearby Weather Stations

Elev 14 ft 27.83 °N, 82.74 °W | Updated 59 seconds ago

Clear
Clear
83.7 °F
Feels Like 89 °F
N
3.6
Wind Variable Wind from North
Gusts 3.6 mph

Today
High -- | Low -- °F
--% Chance of Precip.
Yesterday
High -- | Low -- °F
Precip. -- in
6:37 AM 8:18 PM
First Quarter, 53% visible
Pressure 30.11 in
Visibility 10.0 miles
Clouds Mostly Cloudy 4100 ft
Heat Index 89 °F
Dew Point 72 °F
Humidity 67%
Rainfall 0.00 in
Snow Depth Not available.
UV 0.0 out of 12
Pollen 4.10 out of 12
Air Quality Not available.
Flu Activity Sporadic
METAR KPIE 252353Z 14006KT 10SM VCTS BKN041 30/22 A3011 RMK AO2 LTG DSNT SE AND SW SLP195 T03000222 10339 20294 53003 $

More Conditions Fewer Conditions

Pressure 30.11 in
Visibility 10.0 miles
Clouds Mostly Cloudy 4100 ft
Heat Index 89 °F
Dew Point 72 °F
Humidity 67%
Rainfall 0.00 in
Snow Depth Not available.
UV 0.0 out of 12
Pollen 4.10 out of 12
Air Quality Not available.
Flu Activity Sporadic
METAR KPIE 252353Z 14006KT 10SM VCTS BKN041 30/22 A3011 RMK AO2 LTG DSNT SE AND SW SLP195 T03000222 10339 20294 53003 $

More Conditions Fewer Conditions

10-Day Weather Forecast

Almanac

Astronomy

May. 25, 2015 Rise Set
Actual Time
Civil Twilight
Nautical Twilight
Astronomical Twilight
Moon
Length of Visible Light
Length of Day
Tomorrow will be .
, % of the Moon is Illuminated

Today's Extremes

State Highs State Lows

Community

WunderPhotos

Upload Photos

1,824,187 photos uploaded!

WunderBlogs® & News

Nearby

Air Quality

  Air Quality AQ Index Pollutant
Not available.

Snow Depth

Station Depth Elevation

Earthquake Activity

City Distance Mag. Time & Date
Minimum magnitude displayed is 2.5.

Coastal Water Temperatures

Place Temperature

Stations

Nearby Weather Stations

Station Location Temp. Windchill Dew Point Humidity Wind Precip. Elev Updated Type